createdAt,value
2024-05-09T01:07:23.313Z,11.45
2024-05-09T01:10:28.006Z,11.44
2024-05-09T01:17:07.414Z,11.44
2024-05-09T01:43:44.570Z,11.44
2024-05-09T01:49:11.856Z,11.43
2024-05-09T01:52:10.873Z,11.45
2024-05-09T01:54:38.101Z,11.44
2024-05-09T01:57:08.319Z,11.44
2024-05-09T01:59:35.482Z,11.44
2024-05-09T02:02:09.978Z,11.45
2024-05-09T02:04:38.712Z,11.46
2024-05-09T02:07:08.621Z,11.47
2024-05-09T02:09:39.699Z,11.47
2024-05-09T02:12:11.802Z,11.49
2024-05-09T02:14:40.620Z,11.49
2024-05-09T02:17:07.871Z,11.51
2024-05-09T02:19:36.254Z,11.52
2024-05-09T02:22:04.762Z,11.52
2024-05-09T02:24:33.122Z,11.54
2024-05-09T02:27:01.070Z,11.54
2024-05-09T02:29:29.208Z,11.54
2024-05-09T02:31:57.582Z,11.55
2024-05-09T02:34:25.845Z,11.54
2024-05-09T02:39:31.659Z,11.54
2024-05-09T02:42:13.413Z,11.54
2024-05-09T02:58:27.812Z,11.51
2024-05-09T03:18:14.135Z,11.41
2024-05-09T03:56:57.974Z,11.29
2024-05-09T04:13:00.354Z,11.17
2024-05-09T04:24:50.139Z,11.06
2024-05-09T04:29:47.267Z,10.92
2024-05-09T04:34:41.802Z,10.85
2024-05-09T04:37:14.805Z,10.81
2024-05-09T04:39:41.901Z,10.79
2024-05-09T04:42:10.136Z,10.77
2024-05-09T04:44:38.799Z,10.74
2024-05-09T04:47:06.804Z,10.72
2024-05-09T04:49:35.298Z,10.69
2024-05-09T04:52:03.540Z,10.69
2024-05-09T04:54:36.249Z,10.67
2024-05-09T04:57:01.491Z,10.66
2024-05-09T04:59:30.056Z,10.65
2024-05-09T05:01:58.342Z,10.64
2024-05-09T05:04:26.331Z,10.62
2024-05-09T05:06:54.430Z,10.61
2024-05-09T05:11:48.843Z,10.64
2024-05-09T05:16:42.958Z,10.63
2024-05-09T05:19:13.398Z,10.61
2024-05-09T05:21:39.648Z,10.61
2024-05-09T05:24:07.867Z,10.59
2024-05-09T05:26:36.113Z,10.59
2024-05-09T05:29:04.853Z,10.57
2024-05-09T05:31:33.029Z,10.56
2024-05-09T05:34:01.339Z,10.56
2024-05-09T05:36:29.543Z,10.56
2024-05-09T05:38:57.648Z,10.55
2024-05-09T05:41:25.893Z,10.56
2024-05-09T05:43:54.031Z,10.55
2024-05-09T05:46:22.155Z,10.54
2024-05-09T05:48:50.462Z,10.53
2024-05-09T05:51:18.821Z,10.53
2024-05-09T05:53:46.822Z,10.53
2024-05-09T05:56:15.006Z,10.55
2024-05-09T05:58:43.288Z,10.58
2024-05-09T06:01:11.472Z,10.60
2024-05-09T06:03:39.722Z,10.63
2024-05-09T06:06:07.893Z,10.66
2024-05-09T06:08:35.898Z,10.67
2024-05-09T06:11:04.452Z,10.68
2024-05-09T06:13:32.764Z,10.67
2024-05-09T06:16:01.801Z,10.66
2024-05-09T06:18:30.337Z,10.66
2024-05-09T06:20:58.436Z,10.66
2024-05-09T06:23:26.590Z,10.66
2024-05-09T06:25:54.503Z,10.65
2024-05-09T06:28:22.688Z,10.63
2024-05-09T06:30:50.569Z,10.63
2024-05-09T06:33:18.893Z,10.62
2024-05-09T06:38:13.301Z,10.64
2024-05-09T06:43:18.012Z,10.64
2024-05-09T06:45:46.513Z,10.65
2024-05-09T06:48:14.891Z,10.66
2024-05-09T06:50:43.020Z,10.69
2024-05-09T06:53:14.269Z,10.72
2024-05-09T06:55:43.053Z,10.75
2024-05-09T06:58:11.217Z,10.79
2024-05-09T07:00:41.321Z,10.83
2024-05-09T07:03:17.610Z,10.86
2024-05-09T07:05:46.787Z,10.89
2024-05-09T07:08:16.077Z,10.92
2024-05-09T07:10:44.783Z,10.94
2024-05-09T07:13:14.777Z,10.98
2024-05-09T07:15:43.732Z,11.02
2024-05-09T07:18:19.740Z,11.04
2024-05-09T07:20:49.878Z,11.08
2024-05-09T07:23:18.961Z,11.08
2024-05-09T07:25:47.463Z,11.09
2024-05-09T07:28:20.804Z,11.12
2024-05-09T07:30:48.812Z,11.16
2024-05-09T07:35:47.841Z,11.20
2024-05-09T07:38:16.000Z,11.22
2024-05-09T07:40:43.319Z,11.25
2024-05-09T07:43:12.231Z,11.28
2024-05-09T07:45:50.448Z,11.31
2024-05-09T07:49:44.543Z,11.34
2024-05-09T07:55:38.076Z,11.41
2024-05-09T07:58:06.563Z,11.42
2024-05-09T08:00:34.759Z,11.46
2024-05-09T08:03:03.386Z,11.48
2024-05-09T08:05:32.239Z,11.50
2024-05-09T08:08:00.756Z,11.53
2024-05-09T08:10:29.634Z,11.57
2024-05-09T08:12:58.148Z,11.60
2024-05-09T08:15:27.760Z,11.64
2024-05-09T08:17:56.763Z,11.66
2024-05-09T08:20:31.070Z,11.68
2024-05-09T08:22:55.083Z,11.71
2024-05-09T08:25:23.434Z,11.74
2024-05-09T08:27:51.479Z,11.76
2024-05-09T08:30:25.358Z,11.79
2024-05-09T08:32:50.475Z,11.80
2024-05-09T08:35:18.776Z,11.82
2024-05-09T08:37:47.190Z,11.84
2024-05-09T08:40:23.815Z,11.82
2024-05-09T08:42:49.485Z,11.79
2024-05-09T08:45:18.386Z,11.74
2024-05-09T08:47:46.562Z,11.67
2024-05-09T08:50:24.345Z,11.63
2024-05-09T08:55:12.836Z,11.54
2024-05-09T08:57:41.908Z,11.52
2024-05-09T09:00:15.020Z,11.49
2024-05-09T09:05:12.619Z,11.48
2024-05-09T09:10:08.821Z,11.47
2024-05-09T09:15:03.373Z,11.54
2024-05-09T09:17:31.882Z,11.55
2024-05-09T09:20:06.978Z,11.57
2024-05-09T09:22:36.161Z,11.59
2024-05-09T09:25:11.587Z,11.59
2024-05-09T09:27:39.425Z,11.60
2024-05-09T09:30:15.616Z,11.61
2024-05-09T09:32:38.467Z,11.61
2024-05-09T09:35:07.776Z,11.63
2024-05-09T09:37:37.814Z,11.65
2024-05-09T09:40:12.819Z,11.68
2024-05-09T09:42:42.639Z,11.70
2024-05-09T09:45:16.666Z,11.69
2024-05-09T09:47:57.157Z,11.71
2024-05-09T09:50:33.482Z,11.69
2024-05-09T09:52:58.321Z,11.67
2024-05-09T09:57:56.376Z,11.71
2024-05-09T10:00:38.887Z,11.73
2024-05-09T10:08:30.604Z,11.86
2024-05-09T10:11:49.029Z,11.90
2024-05-09T10:17:20.414Z,12.01
2024-05-09T10:27:25.206Z,12.18
2024-05-09T10:34:06.172Z,12.33
2024-05-09T10:37:07.879Z,12.38
2024-05-09T10:39:40.586Z,12.48
2024-05-09T10:42:21.851Z,12.55
2024-05-09T10:45:09.026Z,12.60
2024-05-09T10:47:50.129Z,12.66
2024-05-09T10:50:28.082Z,12.73
2024-05-09T10:52:55.190Z,12.70
2024-05-09T10:55:24.099Z,12.68
2024-05-09T10:57:52.141Z,12.71
2024-05-09T11:00:30.364Z,12.72
2024-05-09T11:02:57.109Z,12.75
2024-05-09T11:05:27.758Z,12.78
2024-05-09T11:07:59.274Z,12.81
2024-05-09T11:10:34.389Z,12.83
2024-05-09T11:13:02.237Z,12.84
2024-05-09T11:15:43.758Z,12.85
2024-05-09T11:18:25.427Z,12.83
2024-05-09T11:20:55.224Z,12.80
2024-05-09T11:23:25.614Z,12.79
2024-05-09T11:25:56.400Z,12.81
2024-05-09T11:28:27.914Z,12.86
2024-05-09T11:31:08.840Z,12.93
2024-05-09T11:33:43.352Z,12.98
2024-05-09T11:36:11.632Z,13.04
2024-05-09T11:38:40.256Z,13.09
2024-05-09T11:41:08.469Z,13.09
2024-05-09T11:43:36.587Z,13.12
2024-05-09T11:46:05.183Z,13.12
2024-05-09T11:48:33.470Z,13.14
2024-05-09T11:51:01.593Z,13.14
2024-05-09T11:53:30.165Z,13.14
2024-05-09T11:56:00.077Z,13.18
2024-05-09T11:58:36.577Z,13.19
2024-05-09T12:01:05.431Z,13.25
2024-05-09T12:03:36.743Z,13.28
2024-05-09T12:06:05.313Z,13.35
2024-05-09T12:08:35.157Z,13.43
2024-05-09T12:11:03.778Z,13.47
2024-05-09T12:13:33.051Z,13.49
2024-05-09T12:16:02.369Z,13.52
2024-05-09T12:18:30.925Z,13.56
2024-05-09T12:21:02.415Z,13.60
2024-05-09T12:23:32.386Z,13.66
2024-05-09T12:26:03.270Z,13.71
2024-05-09T12:28:32.258Z,13.75
2024-05-09T12:31:02.258Z,13.77
2024-05-09T12:33:40.688Z,13.82
2024-05-09T12:36:16.291Z,13.88
2024-05-09T12:39:09.785Z,13.95
2024-05-09T12:41:58.836Z,14.03
2024-05-09T12:44:30.382Z,14.09
2024-05-09T14:35:30.568Z,14.58
2024-05-09T14:38:06.092Z,14.63
2024-05-09T14:43:03.724Z,14.62
2024-05-09T14:45:32.408Z,14.64
2024-05-09T14:48:07.523Z,14.64
2024-05-09T14:50:55.234Z,14.62
2024-05-09T14:53:27.730Z,14.61
2024-05-09T14:56:29.166Z,14.61
2024-05-09T14:59:03.019Z,14.61
2024-05-09T15:05:09.055Z,14.60
2024-05-09T15:13:24.475Z,14.56
2024-05-09T15:18:47.085Z,14.53
2024-05-09T15:21:15.444Z,14.51
2024-05-09T15:23:47.164Z,14.52
2024-05-09T15:26:17.542Z,14.53
2024-05-09T15:28:45.823Z,14.53
2024-05-09T15:33:45.386Z,14.53
2024-05-09T15:38:43.291Z,14.61
2024-05-09T15:41:37.290Z,14.64
2024-05-09T15:44:08.586Z,14.67
2024-05-09T15:46:38.878Z,14.74
2024-05-09T15:49:09.893Z,14.77
2024-05-09T15:54:22.307Z,14.84
2024-05-09T15:56:58.957Z,14.84
2024-05-09T15:59:28.162Z,14.88
2024-05-09T16:04:28.663Z,14.91
2024-05-09T16:09:35.544Z,14.95
2024-05-09T16:14:31.044Z,14.95
2024-05-09T16:17:02.236Z,14.95
2024-05-09T16:19:30.774Z,14.95
2024-05-09T16:21:59.780Z,14.94
2024-05-09T16:24:29.856Z,14.94
2024-05-09T16:26:58.242Z,14.92
2024-05-09T16:29:26.562Z,14.88
2024-05-09T16:31:54.614Z,14.87
2024-05-09T16:34:23.254Z,14.83
2024-05-09T16:36:51.664Z,14.82
2024-05-09T16:39:19.993Z,14.81
2024-05-09T16:41:48.278Z,14.79
2024-05-09T16:44:17.707Z,14.78
2024-05-09T16:46:47.023Z,14.78
2024-05-09T16:49:28.303Z,14.76
2024-05-09T16:51:59.407Z,14.74
2024-05-09T16:54:27.414Z,14.74
2024-05-09T16:56:55.774Z,14.70
2024-05-09T16:59:24.327Z,14.67
2024-05-09T17:01:52.633Z,14.64
2024-05-09T17:04:21.318Z,14.61
2024-05-09T17:06:49.926Z,14.58
2024-05-09T17:09:20.021Z,14.53
2024-05-09T17:11:48.268Z,14.50
2024-05-09T17:14:16.447Z,14.47
2024-05-09T17:16:44.645Z,14.44
2024-05-09T17:19:25.205Z,14.40
2024-05-09T17:21:54.914Z,14.36
2024-05-09T17:26:52.647Z,14.27
2024-05-09T17:31:47.314Z,14.16
2024-05-09T17:34:16.215Z,14.11
2024-05-09T17:36:44.938Z,14.06
2024-05-09T17:39:13.295Z,14.01
2024-05-09T17:41:42.670Z,13.96
2024-05-09T17:44:19.053Z,13.89
2024-05-09T17:46:52.195Z,13.83
2024-05-09T17:49:57.279Z,13.77
2024-05-09T17:52:29.372Z,13.73
2024-05-09T17:54:58.405Z,13.65
2024-05-09T17:57:27.766Z,13.58
2024-05-09T18:00:11.535Z,13.51
2024-05-09T18:02:51.778Z,13.45
2024-05-09T18:24:10.581Z,12.83
2024-05-09T18:26:38.983Z,12.71
2024-05-09T18:29:13.004Z,12.62
2024-05-09T18:31:41.677Z,12.53
2024-05-09T18:34:11.778Z,12.46
2024-05-09T18:36:42.750Z,12.37
2024-05-09T18:39:15.335Z,12.30
2024-05-09T18:41:45.737Z,12.23
2024-05-09T18:44:18.013Z,12.18
2024-05-09T18:47:05.707Z,12.13
2024-05-09T18:49:34.066Z,12.09
2024-05-09T18:52:04.246Z,12.03
2024-05-09T18:55:15.262Z,11.98
2024-05-09T18:57:24.648Z,11.92
2024-05-09T18:59:55.816Z,11.85
2024-05-09T19:02:24.346Z,11.79
2024-05-09T19:04:52.927Z,11.74
2024-05-09T19:07:24.038Z,11.67
2024-05-09T19:09:56.613Z,11.63
2024-05-09T19:16:59.259Z,11.50
2024-05-09T19:19:06.568Z,11.40
2024-05-09T19:21:39.798Z,11.34
2024-05-09T19:24:16.288Z,11.26
2024-05-09T19:26:45.205Z,11.20
2024-05-09T19:29:15.538Z,11.13
2024-05-09T19:31:51.592Z,11.07
2024-05-09T19:34:19.749Z,10.99
2024-05-09T19:36:48.132Z,10.93
2024-05-09T19:39:16.792Z,10.85
2024-05-09T19:41:45.040Z,10.79
2024-05-09T19:44:12.928Z,10.70
2024-05-09T19:46:41.002Z,10.62
2024-05-09T19:49:09.591Z,10.56
2024-05-09T19:51:37.820Z,10.49
2024-05-09T19:54:05.846Z,10.41
2024-05-09T19:56:34.108Z,10.35
2024-05-09T19:59:03.569Z,10.29
2024-05-09T20:01:31.625Z,10.22
2024-05-09T20:04:00.070Z,10.17
2024-05-09T20:06:29.953Z,10.12
2024-05-09T20:08:58.963Z,10.07
2024-05-09T20:11:27.153Z,10.01
2024-05-09T20:13:56.979Z,9.95
2024-05-09T20:16:25.509Z,9.89
2024-05-09T20:18:54.359Z,9.84
2024-05-09T20:21:23.309Z,9.79
2024-05-09T20:23:53.993Z,9.75
2024-05-09T20:26:22.084Z,9.69
2024-05-09T20:28:51.683Z,9.66
2024-05-09T20:31:21.253Z,9.61
2024-05-09T20:33:51.516Z,9.57
2024-05-09T20:36:19.801Z,9.52
2024-05-09T20:38:48.024Z,9.49
2024-05-09T20:41:16.282Z,9.44
2024-05-09T20:43:44.330Z,9.40
2024-05-09T20:46:15.231Z,9.37
2024-05-09T20:48:43.822Z,9.31
2024-05-09T20:51:12.131Z,9.27
2024-05-09T20:53:40.886Z,9.23
2024-05-09T20:56:08.887Z,9.18
2024-05-09T20:58:36.986Z,9.12
2024-05-09T21:01:07.234Z,9.07
2024-05-09T21:03:37.484Z,9.03
2024-05-09T21:06:06.023Z,8.99
2024-05-09T21:08:34.099Z,8.95
2024-05-09T21:11:02.407Z,8.92
2024-05-09T21:13:30.887Z,8.89
2024-05-09T21:15:59.114Z,8.87
2024-05-09T21:18:27.482Z,8.84
2024-05-09T21:20:56.326Z,8.81
2024-05-09T21:23:24.605Z,8.78
2024-05-09T21:25:52.813Z,8.75
2024-05-09T21:28:21.071Z,8.72
2024-05-09T21:30:49.320Z,8.67
2024-05-09T21:33:17.832Z,8.63
2024-05-09T21:35:46.081Z,8.59
2024-05-09T21:38:15.610Z,8.55
2024-05-09T21:40:44.779Z,8.51
2024-05-09T21:43:13.617Z,8.47
2024-05-09T21:45:41.885Z,8.41
2024-05-09T21:48:13.104Z,8.35
2024-05-09T21:50:42.394Z,8.31
2024-05-09T21:53:12.073Z,8.26
2024-05-09T21:55:41.519Z,8.22
2024-05-09T21:58:09.721Z,8.18
2024-05-09T22:00:39.758Z,8.15
2024-05-09T22:03:10.962Z,8.10
2024-05-09T22:05:40.499Z,8.08
2024-05-09T22:08:08.609Z,8.04
2024-05-09T22:10:37.254Z,7.98
2024-05-09T22:13:09.261Z,7.95
2024-05-09T22:15:40.008Z,7.92
2024-05-09T22:18:10.586Z,7.88
2024-05-09T22:20:41.796Z,7.85
2024-05-09T22:23:10.409Z,7.81
2024-05-09T22:25:38.855Z,7.79
2024-05-09T22:28:07.479Z,7.76
2024-05-09T22:30:39.075Z,7.72
2024-05-09T22:33:08.285Z,7.69
2024-05-09T22:35:37.318Z,7.66
2024-05-09T22:38:05.770Z,7.63
2024-05-09T22:40:44.875Z,7.59
2024-05-09T22:43:04.275Z,7.56
2024-05-09T22:45:32.355Z,7.54
2024-05-09T22:48:01.072Z,7.51
2024-05-09T22:50:33.276Z,7.48
2024-05-09T22:52:59.129Z,7.45
2024-05-09T22:55:27.303Z,7.41
2024-05-09T22:57:55.612Z,7.38
2024-05-09T23:02:53.882Z,7.30
2024-05-09T23:05:22.186Z,7.27
2024-05-09T23:07:50.313Z,7.25
2024-05-09T23:10:27.309Z,7.22
2024-05-09T23:12:48.536Z,7.20
2024-05-09T23:15:16.595Z,7.17
2024-05-09T23:17:44.925Z,7.15
2024-05-09T23:20:14.957Z,7.14
2024-05-09T23:22:43.209Z,7.12
2024-05-09T23:25:11.382Z,7.09
2024-05-09T23:27:39.490Z,7.05
2024-05-09T23:30:12.158Z,7.02
2024-05-09T23:32:38.477Z,6.98
2024-05-09T23:35:06.755Z,6.96
2024-05-09T23:37:34.822Z,6.94
2024-05-09T23:40:06.796Z,6.92
2024-05-09T23:42:33.158Z,6.89
2024-05-09T23:45:01.009Z,6.88
2024-05-09T23:47:29.262Z,6.85
2024-05-09T23:49:57.528Z,6.81
2024-05-09T23:52:25.882Z,6.80
2024-05-09T23:54:54.453Z,6.76
2024-05-09T23:57:25.204Z,6.73
2024-05-09T23:59:53.463Z,6.72
